sensor_id;sensor_type;location;lat;lon;timestamp;temperature;humidity
25046;DHT22;13044;49.304;12.840;2022-08-24T00:01:24;17.20;99.90
25046;DHT22;13044;49.304;12.840;2022-08-24T00:03:54;17.10;99.90
25046;DHT22;13044;49.304;12.840;2022-08-24T00:06:26;16.90;99.90
25046;DHT22;13044;49.304;12.840;2022-08-24T00:08:55;16.90;99.90
25046;DHT22;13044;49.304;12.840;2022-08-24T00:11:25;16.80;99.90
25046;DHT22;13044;49.304;12.840;2022-08-24T00:13:52;16.70;99.90
25046;DHT22;13044;49.304;12.840;2022-08-24T00:16:20;16.70;99.90
25046;DHT22;13044;49.304;12.840;2022-08-24T00:18:47;16.70;99.90
25046;DHT22;13044;49.304;12.840;2022-08-24T00:21:16;16.70;99.90
25046;DHT22;13044;49.304;12.840;2022-08-24T00:23:44;16.80;99.90
25046;DHT22;13044;49.304;12.840;2022-08-24T00:26:12;16.80;99.90
25046;DHT22;13044;49.304;12.840;2022-08-24T00:28:40;16.80;99.90
25046;DHT22;13044;49.304;12.840;2022-08-24T00:31:07;16.80;99.90
25046;DHT22;13044;49.304;12.840;2022-08-24T00:33:35;16.80;99.90
25046;DHT22;13044;49.304;12.840;2022-08-24T00:36:03;16.80;99.90
25046;DHT22;13044;49.304;12.840;2022-08-24T00:38:32;16.80;99.90
25046;DHT22;13044;49.304;12.840;2022-08-24T00:41:01;16.70;99.90
25046;DHT22;13044;49.304;12.840;2022-08-24T00:43:29;16.60;99.90
25046;DHT22;13044;49.304;12.840;2022-08-24T00:46:13;16.60;99.90
25046;DHT22;13044;49.304;12.840;2022-08-24T00:48:49;16.50;99.90
25046;DHT22;13044;49.304;12.840;2022-08-24T00:51:26;16.50;99.90
25046;DHT22;13044;49.304;12.840;2022-08-24T00:54:01;16.50;99.90
25046;DHT22;13044;49.304;12.840;2022-08-24T00:56:43;16.50;99.90
25046;DHT22;13044;49.304;12.840;2022-08-24T00:59:24;16.50;99.90
25046;DHT22;13044;49.304;12.840;2022-08-24T01:01:54;16.60;99.90
25046;DHT22;13044;49.304;12.840;2022-08-24T01:04:31;16.60;99.90
25046;DHT22;13044;49.304;12.840;2022-08-24T01:07:01;16.60;99.90
25046;DHT22;13044;49.304;12.840;2022-08-24T01:09:29;16.70;99.90
25046;DHT22;13044;49.304;12.840;2022-08-24T01:11:56;16.70;99.90
25046;DHT22;13044;49.304;12.840;2022-08-24T01:14:24;16.70;99.90
25046;DHT22;13044;49.304;12.840;2022-08-24T01:16:51;16.70;99.90
25046;DHT22;13044;49.304;12.840;2022-08-24T01:19:46;16.70;99.90
25046;DHT22;13044;49.304;12.840;2022-08-24T01:22:36;16.80;99.90
25046;DHT22;13044;49.304;12.840;2022-08-24T01:25:10;16.70;99.90
25046;DHT22;13044;49.304;12.840;2022-08-24T01:27:39;16.80;99.90
25046;DHT22;13044;49.304;12.840;2022-08-24T01:30:10;16.70;99.90
25046;DHT22;13044;49.304;12.840;2022-08-24T01:32:41;16.70;99.90
25046;DHT22;13044;49.304;12.840;2022-08-24T01:35:19;16.70;99.90
25046;DHT22;13044;49.304;12.840;2022-08-24T01:37:46;16.70;99.90
25046;DHT22;13044;49.304;12.840;2022-08-24T01:40:13;16.80;99.90
25046;DHT22;13044;49.304;12.840;2022-08-24T01:42:50;16.80;99.90
25046;DHT22;13044;49.304;12.840;2022-08-24T01:45:19;16.80;99.90
25046;DHT22;13044;49.304;12.840;2022-08-24T01:47:46;16.80;99.90
25046;DHT22;13044;49.304;12.840;2022-08-24T01:50:13;16.90;99.90
25046;DHT22;13044;49.304;12.840;2022-08-24T01:52:42;16.90;99.90
25046;DHT22;13044;49.304;12.840;2022-08-24T01:55:30;16.90;99.90
25046;DHT22;13044;49.304;12.840;2022-08-24T01:57:57;17.00;99.90
25046;DHT22;13044;49.304;12.840;2022-08-24T02:00:25;17.00;99.90
25046;DHT22;13044;49.304;12.840;2022-08-24T02:02:53;17.10;99.90
25046;DHT22;13044;49.304;12.840;2022-08-24T02:05:22;17.10;99.90
25046;DHT22;13044;49.304;12.840;2022-08-24T02:07:51;17.10;99.90
25046;DHT22;13044;49.304;12.840;2022-08-24T02:10:19;17.10;99.90
25046;DHT22;13044;49.304;12.840;2022-08-24T02:12:47;17.10;99.90
25046;DHT22;13044;49.304;12.840;2022-08-24T02:15:35;17.10;99.90
25046;DHT22;13044;49.304;12.840;2022-08-24T02:18:07;17.10;99.90
25046;DHT22;13044;49.304;12.840;2022-08-24T02:20:41;17.20;99.90
25046;DHT22;13044;49.304;12.840;2022-08-24T02:23:08;17.30;99.90
25046;DHT22;13044;49.304;12.840;2022-08-24T02:25:35;17.40;99.90
25046;DHT22;13044;49.304;12.840;2022-08-24T02:28:03;17.30;99.90
25046;DHT22;13044;49.304;12.840;2022-08-24T02:30:31;17.30;99.90
25046;DHT22;13044;49.304;12.840;2022-08-24T02:32:58;17.30;99.90
25046;DHT22;13044;49.304;12.840;2022-08-24T02:35:27;17.30;99.90
25046;DHT22;13044;49.304;12.840;2022-08-24T02:37:55;17.30;99.90
25046;DHT22;13044;49.304;12.840;2022-08-24T02:40:22;17.40;99.90
25046;DHT22;13044;49.304;12.840;2022-08-24T02:42:50;17.40;99.90
25046;DHT22;13044;49.304;12.840;2022-08-24T02:45:17;17.50;99.90
25046;DHT22;13044;49.304;12.840;2022-08-24T02:47:44;17.50;99.90
25046;DHT22;13044;49.304;12.840;2022-08-24T02:50:13;17.40;99.90
25046;DHT22;13044;49.304;12.840;2022-08-24T02:52:41;17.40;99.90
25046;DHT22;13044;49.304;12.840;2022-08-24T02:55:12;17.40;99.90
25046;DHT22;13044;49.304;12.840;2022-08-24T02:57:46;17.40;99.90
25046;DHT22;13044;49.304;12.840;2022-08-24T03:00:16;17.40;99.90
25046;DHT22;13044;49.304;12.840;2022-08-24T03:02:44;17.50;99.90
25046;DHT22;13044;49.304;12.840;2022-08-24T03:05:12;17.50;99.90
25046;DHT22;13044;49.304;12.840;2022-08-24T03:07:40;17.50;99.90
25046;DHT22;13044;49.304;12.840;2022-08-24T03:10:09;17.40;99.90
25046;DHT22;13044;49.304;12.840;2022-08-24T03:12:36;17.50;99.90
25046;DHT22;13044;49.304;12.840;2022-08-24T03:15:05;17.50;99.90
25046;DHT22;13044;49.304;12.840;2022-08-24T03:17:36;17.50;99.90
25046;DHT22;13044;49.304;12.840;2022-08-24T03:20:10;17.50;99.90
25046;DHT22;13044;49.304;12.840;2022-08-24T03:22:40;17.60;99.90
25046;DHT22;13044;49.304;12.840;2022-08-24T03:25:08;17.60;99.90
25046;DHT22;13044;49.304;12.840;2022-08-24T03:27:36;17.60;99.90
25046;DHT22;13044;49.304;12.840;2022-08-24T03:30:04;17.60;99.90
25046;DHT22;13044;49.304;12.840;2022-08-24T03:32:33;17.60;99.90
25046;DHT22;13044;49.304;12.840;2022-08-24T03:35:00;17.60;99.90
25046;DHT22;13044;49.304;12.840;2022-08-24T03:37:27;17.50;99.90
25046;DHT22;13044;49.304;12.840;2022-08-24T03:39:54;17.50;99.90
25046;DHT22;13044;49.304;12.840;2022-08-24T03:42:21;17.40;99.90
25046;DHT22;13044;49.304;12.840;2022-08-24T03:44:49;17.40;99.90
25046;DHT22;13044;49.304;12.840;2022-08-24T03:47:16;17.40;99.90
25046;DHT22;13044;49.304;12.840;2022-08-24T03:49:45;17.40;99.90
25046;DHT22;13044;49.304;12.840;2022-08-24T03:52:12;17.40;99.90
25046;DHT22;13044;49.304;12.840;2022-08-24T03:54:39;17.40;99.90
25046;DHT22;13044;49.304;12.840;2022-08-24T03:57:06;17.30;99.90
25046;DHT22;13044;49.304;12.840;2022-08-24T03:59:33;17.30;99.90
25046;DHT22;13044;49.304;12.840;2022-08-24T04:02:06;17.20;99.90
25046;DHT22;13044;49.304;12.840;2022-08-24T04:04:35;17.10;99.90
25046;DHT22;13044;49.304;12.840;2022-08-24T04:07:02;17.00;99.90
25046;DHT22;13044;49.304;12.840;2022-08-24T04:09:30;17.00;99.90
25046;DHT22;13044;49.304;12.840;2022-08-24T04:11:57;17.00;99.90
25046;DHT22;13044;49.304;12.840;2022-08-24T04:14:25;17.00;99.90
25046;DHT22;13044;49.304;12.840;2022-08-24T04:16:53;16.90;99.90
25046;DHT22;13044;49.304;12.840;2022-08-24T04:19:23;16.90;99.90
25046;DHT22;13044;49.304;12.840;2022-08-24T04:21:50;16.90;99.90
25046;DHT22;13044;49.304;12.840;2022-08-24T04:24:17;16.90;99.90
25046;DHT22;13044;49.304;12.840;2022-08-24T04:26:46;16.90;99.90
25046;DHT22;13044;49.304;12.840;2022-08-24T04:29:14;17.00;99.90
25046;DHT22;13044;49.304;12.840;2022-08-24T04:31:43;17.00;99.90
25046;DHT22;13044;49.304;12.840;2022-08-24T04:34:11;16.90;99.90
25046;DHT22;13044;49.304;12.840;2022-08-24T04:36:41;17.00;99.90
25046;DHT22;13044;49.304;12.840;2022-08-24T04:39:09;17.00;99.90
25046;DHT22;13044;49.304;12.840;2022-08-24T04:41:36;17.00;99.90
25046;DHT22;13044;49.304;12.840;2022-08-24T04:44:04;17.10;99.90
25046;DHT22;13044;49.304;12.840;2022-08-24T04:46:31;17.20;99.90
25046;DHT22;13044;49.304;12.840;2022-08-24T04:48:58;17.30;99.90
25046;DHT22;13044;49.304;12.840;2022-08-24T04:51:25;17.30;99.90
25046;DHT22;13044;49.304;12.840;2022-08-24T04:53:54;17.30;99.90
25046;DHT22;13044;49.304;12.840;2022-08-24T04:56:23;17.40;99.90
25046;DHT22;13044;49.304;12.840;2022-08-24T04:58:53;17.40;99.90
25046;DHT22;13044;49.304;12.840;2022-08-24T05:01:23;17.40;99.90
25046;DHT22;13044;49.304;12.840;2022-08-24T05:03:53;17.50;99.90
25046;DHT22;13044;49.304;12.840;2022-08-24T05:06:24;17.50;99.90
25046;DHT22;13044;49.304;12.840;2022-08-24T05:08:52;17.60;99.90
25046;DHT22;13044;49.304;12.840;2022-08-24T05:11:20;17.60;99.90
25046;DHT22;13044;49.304;12.840;2022-08-24T05:13:50;17.70;99.90
25046;DHT22;13044;49.304;12.840;2022-08-24T05:16:18;17.70;99.90
25046;DHT22;13044;49.304;12.840;2022-08-24T05:18:46;17.80;99.90
25046;DHT22;13044;49.304;12.840;2022-08-24T05:21:17;17.80;99.90
25046;DHT22;13044;49.304;12.840;2022-08-24T05:23:47;17.80;99.90
25046;DHT22;13044;49.304;12.840;2022-08-24T05:26:22;17.80;99.90
25046;DHT22;13044;49.304;12.840;2022-08-24T05:28:59;17.90;99.90
25046;DHT22;13044;49.304;12.840;2022-08-24T05:31:29;17.90;99.90
25046;DHT22;13044;49.304;12.840;2022-08-24T05:33:59;17.90;99.90
25046;DHT22;13044;49.304;12.840;2022-08-24T05:36:32;17.90;99.90
25046;DHT22;13044;49.304;12.840;2022-08-24T05:39:05;17.90;99.90
25046;DHT22;13044;49.304;12.840;2022-08-24T05:41:41;17.90;99.90
25046;DHT22;13044;49.304;12.840;2022-08-24T05:44:14;17.90;99.90
25046;DHT22;13044;49.304;12.840;2022-08-24T05:46:43;18.00;99.90
25046;DHT22;13044;49.304;12.840;2022-08-24T05:49:10;18.00;99.90
25046;DHT22;13044;49.304;12.840;2022-08-24T05:51:38;18.10;99.90
25046;DHT22;13044;49.304;12.840;2022-08-24T05:54:05;18.10;99.90
25046;DHT22;13044;49.304;12.840;2022-08-24T05:56:32;18.10;99.90
25046;DHT22;13044;49.304;12.840;2022-08-24T05:58:59;18.10;99.90
25046;DHT22;13044;49.304;12.840;2022-08-24T06:01:27;18.20;99.90
25046;DHT22;13044;49.304;12.840;2022-08-24T06:03:56;18.20;99.90
25046;DHT22;13044;49.304;12.840;2022-08-24T06:06:25;18.20;99.90
25046;DHT22;13044;49.304;12.840;2022-08-24T06:08:54;18.30;99.90
25046;DHT22;13044;49.304;12.840;2022-08-24T06:11:28;18.30;99.90
25046;DHT22;13044;49.304;12.840;2022-08-24T06:14:04;18.30;99.90
25046;DHT22;13044;49.304;12.840;2022-08-24T06:16:38;18.30;99.90
25046;DHT22;13044;49.304;12.840;2022-08-24T06:19:09;18.30;99.90
25046;DHT22;13044;49.304;12.840;2022-08-24T06:21:37;18.40;99.90
25046;DHT22;13044;49.304;12.840;2022-08-24T06:24:05;18.40;99.90
25046;DHT22;13044;49.304;12.840;2022-08-24T06:26:32;18.50;99.90
25046;DHT22;13044;49.304;12.840;2022-08-24T06:29:19;18.50;99.90
25046;DHT22;13044;49.304;12.840;2022-08-24T06:31:47;18.50;99.90
25046;DHT22;13044;49.304;12.840;2022-08-24T06:34:21;18.60;99.90
25046;DHT22;13044;49.304;12.840;2022-08-24T06:36:49;18.60;99.90
25046;DHT22;13044;49.304;12.840;2022-08-24T06:39:17;18.60;99.90
25046;DHT22;13044;49.304;12.840;2022-08-24T06:41:44;18.70;99.90
25046;DHT22;13044;49.304;12.840;2022-08-24T06:44:11;18.80;99.90
25046;DHT22;13044;49.304;12.840;2022-08-24T06:46:38;18.90;99.90
25046;DHT22;13044;49.304;12.840;2022-08-24T06:49:05;18.90;99.90
25046;DHT22;13044;49.304;12.840;2022-08-24T06:51:33;18.90;99.90
25046;DHT22;13044;49.304;12.840;2022-08-24T06:54:00;18.90;99.90
25046;DHT22;13044;49.304;12.840;2022-08-24T06:56:27;19.00;99.90
25046;DHT22;13044;49.304;12.840;2022-08-24T06:58:54;19.00;99.90
25046;DHT22;13044;49.304;12.840;2022-08-24T07:01:24;19.10;99.90
25046;DHT22;13044;49.304;12.840;2022-08-24T07:03:53;19.10;99.90
25046;DHT22;13044;49.304;12.840;2022-08-24T07:06:21;19.20;99.90
25046;DHT22;13044;49.304;12.840;2022-08-24T07:08:49;19.20;99.90
25046;DHT22;13044;49.304;12.840;2022-08-24T07:11:17;19.20;99.90
25046;DHT22;13044;49.304;12.840;2022-08-24T07:13:45;19.20;99.90
25046;DHT22;13044;49.304;12.840;2022-08-24T07:16:17;19.30;99.90
25046;DHT22;13044;49.304;12.840;2022-08-24T07:18:45;19.30;99.90
25046;DHT22;13044;49.304;12.840;2022-08-24T07:21:17;19.40;99.90
25046;DHT22;13044;49.304;12.840;2022-08-24T07:23:46;19.50;99.90
25046;DHT22;13044;49.304;12.840;2022-08-24T07:26:16;19.50;99.90
25046;DHT22;13044;49.304;12.840;2022-08-24T07:28:48;19.60;99.90
25046;DHT22;13044;49.304;12.840;2022-08-24T07:31:16;19.60;99.90
25046;DHT22;13044;49.304;12.840;2022-08-24T07:33:43;19.70;99.90
25046;DHT22;13044;49.304;12.840;2022-08-24T07:36:10;19.70;99.90
25046;DHT22;13044;49.304;12.840;2022-08-24T07:38:48;19.70;99.90
25046;DHT22;13044;49.304;12.840;2022-08-24T07:41:18;19.80;99.90
25046;DHT22;13044;49.304;12.840;2022-08-24T07:44:06;19.90;99.90
25046;DHT22;13044;49.304;12.840;2022-08-24T07:46:33;19.90;99.90
25046;DHT22;13044;49.304;12.840;2022-08-24T07:49:00;19.90;99.90
25046;DHT22;13044;49.304;12.840;2022-08-24T07:51:38;20.00;99.90
25046;DHT22;13044;49.304;12.840;2022-08-24T07:54:12;20.00;99.90
25046;DHT22;13044;49.304;12.840;2022-08-24T07:56:41;20.10;99.90
25046;DHT22;13044;49.304;12.840;2022-08-24T07:59:08;20.10;99.90
25046;DHT22;13044;49.304;12.840;2022-08-24T08:01:40;20.10;99.90
25046;DHT22;13044;49.304;12.840;2022-08-24T08:04:07;20.20;99.90
25046;DHT22;13044;49.304;12.840;2022-08-24T08:06:35;20.30;99.90
25046;DHT22;13044;49.304;12.840;2022-08-24T08:09:02;20.40;99.90
25046;DHT22;13044;49.304;12.840;2022-08-24T08:11:31;20.50;99.90
25046;DHT22;13044;49.304;12.840;2022-08-24T08:13:58;20.60;99.90
25046;DHT22;13044;49.304;12.840;2022-08-24T08:16:25;20.80;99.90
25046;DHT22;13044;49.304;12.840;2022-08-24T08:18:53;20.90;99.90
25046;DHT22;13044;49.304;12.840;2022-08-24T08:21:49;21.00;99.90
25046;DHT22;13044;49.304;12.840;2022-08-24T08:24:40;21.20;99.90
25046;DHT22;13044;49.304;12.840;2022-08-24T08:27:10;21.40;99.90
25046;DHT22;13044;49.304;12.840;2022-08-24T08:29:39;21.50;99.90
25046;DHT22;13044;49.304;12.840;2022-08-24T08:32:10;21.50;99.90
25046;DHT22;13044;49.304;12.840;2022-08-24T08:34:40;21.50;99.90
25046;DHT22;13044;49.304;12.840;2022-08-24T08:37:07;21.60;99.90
25046;DHT22;13044;49.304;12.840;2022-08-24T08:39:34;21.70;99.90
25046;DHT22;13044;49.304;12.840;2022-08-24T08:42:14;21.70;99.90
25046;DHT22;13044;49.304;12.840;2022-08-24T08:45:13;21.70;99.90
25046;DHT22;13044;49.304;12.840;2022-08-24T08:54:12;21.90;99.90
25046;DHT22;13044;49.304;12.840;2022-08-24T08:57:00;21.90;99.90
25046;DHT22;13044;49.304;12.840;2022-08-24T09:11:12;22.30;99.90
25046;DHT22;13044;49.304;12.840;2022-08-24T09:14:20;22.50;99.90
25046;DHT22;13044;49.304;12.840;2022-08-24T09:17:27;22.60;99.90
25046;DHT22;13044;49.304;12.840;2022-08-24T09:35:05;22.90;99.90
25046;DHT22;13044;49.304;12.840;2022-08-24T09:40:36;23.10;99.90
25046;DHT22;13044;49.304;12.840;2022-08-24T09:55:10;23.60;99.90
25046;DHT22;13044;49.304;12.840;2022-08-24T10:01:37;23.70;99.90
25046;DHT22;13044;49.304;12.840;2022-08-24T10:07:40;24.20;99.90
25046;DHT22;13044;49.304;12.840;2022-08-24T10:15:42;24.20;99.90
25046;DHT22;13044;49.304;12.840;2022-08-24T10:21:51;23.90;99.90
25046;DHT22;13044;49.304;12.840;2022-08-24T10:42:56;24.00;99.90
25046;DHT22;13044;49.304;12.840;2022-08-24T10:54:34;24.00;99.90
25046;DHT22;13044;49.304;12.840;2022-08-24T11:02:37;24.00;99.90
25046;DHT22;13044;49.304;12.840;2022-08-24T11:05:11;24.10;99.90
25046;DHT22;13044;49.304;12.840;2022-08-24T11:08:11;24.10;99.90
25046;DHT22;13044;49.304;12.840;2022-08-24T11:11:35;24.10;99.90
25046;DHT22;13044;49.304;12.840;2022-08-24T11:14:29;24.10;99.90
25046;DHT22;13044;49.304;12.840;2022-08-24T11:17:30;24.10;99.90
25046;DHT22;13044;49.304;12.840;2022-08-24T11:19:58;24.20;99.90
25046;DHT22;13044;49.304;12.840;2022-08-24T11:22:42;24.20;99.90
25046;DHT22;13044;49.304;12.840;2022-08-24T11:25:34;24.30;99.90
25046;DHT22;13044;49.304;12.840;2022-08-24T11:28:22;24.30;99.90
25046;DHT22;13044;49.304;12.840;2022-08-24T11:30:55;24.40;99.90
25046;DHT22;13044;49.304;12.840;2022-08-24T11:35:57;24.40;99.90
25046;DHT22;13044;49.304;12.840;2022-08-24T11:38:29;24.40;99.90
25046;DHT22;13044;49.304;12.840;2022-08-24T11:41:12;24.30;99.90
25046;DHT22;13044;49.304;12.840;2022-08-24T11:44:00;24.10;99.90
25046;DHT22;13044;49.304;12.840;2022-08-24T11:46:34;24.10;99.90
25046;DHT22;13044;49.304;12.840;2022-08-24T12:07:12;24.80;99.90
25046;DHT22;13044;49.304;12.840;2022-08-24T12:10:09;24.80;99.90
25046;DHT22;13044;49.304;12.840;2022-08-24T12:21:04;24.70;99.90
25046;DHT22;13044;49.304;12.840;2022-08-24T12:23:44;24.60;99.90
25046;DHT22;13044;49.304;12.840;2022-08-24T12:28:54;25.00;99.90
25046;DHT22;13044;49.304;12.840;2022-08-24T12:31:54;25.10;99.90
25046;DHT22;13044;49.304;12.840;2022-08-24T12:34:31;25.20;99.90
25046;DHT22;13044;49.304;12.840;2022-08-24T12:37:43;25.20;99.90
25046;DHT22;13044;49.304;12.840;2022-08-24T12:40:42;25.20;99.90
25046;DHT22;13044;49.304;12.840;2022-08-24T12:43:24;25.40;99.90
25046;DHT22;13044;49.304;12.840;2022-08-24T12:45:57;25.60;99.90
25046;DHT22;13044;49.304;12.840;2022-08-24T12:48:38;25.80;99.90
25046;DHT22;13044;49.304;12.840;2022-08-24T12:57:26;26.10;99.90
25046;DHT22;13044;49.304;12.840;2022-08-24T13:00:12;26.00;99.90
25046;DHT22;13044;49.304;12.840;2022-08-24T13:02:59;26.00;99.90
25046;DHT22;13044;49.304;12.840;2022-08-24T13:05:45;26.00;99.90
25046;DHT22;13044;49.304;12.840;2022-08-24T13:08:21;26.00;99.90
25046;DHT22;13044;49.304;12.840;2022-08-24T13:11:11;25.90;99.90
25046;DHT22;13044;49.304;12.840;2022-08-24T13:14:21;25.80;99.90
25046;DHT22;13044;49.304;12.840;2022-08-24T13:21:56;25.80;99.90
25046;DHT22;13044;49.304;12.840;2022-08-24T13:30:03;25.30;99.90
25046;DHT22;13044;49.304;12.840;2022-08-24T13:32:39;25.20;99.90
25046;DHT22;13044;49.304;12.840;2022-08-24T13:35:47;25.50;99.90
25046;DHT22;13044;49.304;12.840;2022-08-24T13:50:09;25.90;99.90
25046;DHT22;13044;49.304;12.840;2022-08-24T13:55:44;25.80;99.90
25046;DHT22;13044;49.304;12.840;2022-08-24T13:58:43;25.80;99.90
25046;DHT22;13044;49.304;12.840;2022-08-24T14:13:19;25.70;99.90
25046;DHT22;13044;49.304;12.840;2022-08-24T14:15:59;25.80;99.90
25046;DHT22;13044;49.304;12.840;2022-08-24T14:21:35;25.80;99.90
25046;DHT22;13044;49.304;12.840;2022-08-24T14:24:24;25.90;99.90
25046;DHT22;13044;49.304;12.840;2022-08-24T14:27:04;26.00;99.90
25046;DHT22;13044;49.304;12.840;2022-08-24T14:29:36;26.10;99.90
25046;DHT22;13044;49.304;12.840;2022-08-24T14:38:07;25.70;99.90
25046;DHT22;13044;49.304;12.840;2022-08-24T14:43:52;25.60;99.90
25046;DHT22;13044;49.304;12.840;2022-08-24T14:49:41;25.60;99.90
25046;DHT22;13044;49.304;12.840;2022-08-24T15:00:47;26.00;99.90
25046;DHT22;13044;49.304;12.840;2022-08-24T15:09:09;25.70;99.90
25046;DHT22;13044;49.304;12.840;2022-08-24T15:11:40;25.60;99.90
25046;DHT22;13044;49.304;12.840;2022-08-24T15:17:25;25.80;99.90
25046;DHT22;13044;49.304;12.840;2022-08-24T15:20:17;25.90;99.90
25046;DHT22;13044;49.304;12.840;2022-08-24T15:22:57;26.00;99.90
25046;DHT22;13044;49.304;12.840;2022-08-24T15:25:38;25.90;99.90
25046;DHT22;13044;49.304;12.840;2022-08-24T15:28:31;25.80;99.90
25046;DHT22;13044;49.304;12.840;2022-08-24T15:31:10;25.80;99.90
25046;DHT22;13044;49.304;12.840;2022-08-24T15:33:55;25.80;99.90
25046;DHT22;13044;49.304;12.840;2022-08-24T15:36:24;25.80;99.90
25046;DHT22;13044;49.304;12.840;2022-08-24T15:38:51;25.80;99.90
25046;DHT22;13044;49.304;12.840;2022-08-24T15:41:29;25.80;99.90
25046;DHT22;13044;49.304;12.840;2022-08-24T15:47:02;25.40;99.90
25046;DHT22;13044;49.304;12.840;2022-08-24T15:49:48;25.30;99.90
25046;DHT22;13044;49.304;12.840;2022-08-24T15:52:49;25.20;99.90
25046;DHT22;13044;49.304;12.840;2022-08-24T15:55:40;25.10;99.90
25046;DHT22;13044;49.304;12.840;2022-08-24T16:01:18;24.90;99.90
25046;DHT22;13044;49.304;12.840;2022-08-24T16:04:12;24.80;99.90
25046;DHT22;13044;49.304;12.840;2022-08-24T16:06:46;24.80;99.90
25046;DHT22;13044;49.304;12.840;2022-08-24T16:09:30;24.70;99.90
25046;DHT22;13044;49.304;12.840;2022-08-24T16:14:40;24.70;99.90
25046;DHT22;13044;49.304;12.840;2022-08-24T16:20:12;24.60;99.90
25046;DHT22;13044;49.304;12.840;2022-08-24T16:22:54;24.70;99.90
25046;DHT22;13044;49.304;12.840;2022-08-24T16:25:28;24.70;99.90
25046;DHT22;13044;49.304;12.840;2022-08-24T16:30:51;24.60;99.90
25046;DHT22;13044;49.304;12.840;2022-08-24T16:33:34;24.70;99.90
25046;DHT22;13044;49.304;12.840;2022-08-24T16:36:12;24.60;99.90
25046;DHT22;13044;49.304;12.840;2022-08-24T16:38:46;24.60;99.90
25046;DHT22;13044;49.304;12.840;2022-08-24T16:41:18;24.60;99.90
25046;DHT22;13044;49.304;12.840;2022-08-24T16:43:47;24.50;99.90
25046;DHT22;13044;49.304;12.840;2022-08-24T16:46:19;24.50;99.90
25046;DHT22;13044;49.304;12.840;2022-08-24T16:48:48;24.50;99.90
25046;DHT22;13044;49.304;12.840;2022-08-24T16:51:15;24.40;99.90
25046;DHT22;13044;49.304;12.840;2022-08-24T16:53:41;24.30;99.90
25046;DHT22;13044;49.304;12.840;2022-08-24T16:56:09;24.30;99.90
25046;DHT22;13044;49.304;12.840;2022-08-24T16:58:41;24.30;99.90
25046;DHT22;13044;49.304;12.840;2022-08-24T17:01:08;24.20;99.90
25046;DHT22;13044;49.304;12.840;2022-08-24T17:03:35;24.10;99.90
25046;DHT22;13044;49.304;12.840;2022-08-24T17:06:02;24.00;99.90
25046;DHT22;13044;49.304;12.840;2022-08-24T17:08:29;24.00;99.90
25046;DHT22;13044;49.304;12.840;2022-08-24T17:10:56;23.90;99.90
25046;DHT22;13044;49.304;12.840;2022-08-24T17:13:23;23.80;99.90
25046;DHT22;13044;49.304;12.840;2022-08-24T17:16:11;23.80;99.90
25046;DHT22;13044;49.304;12.840;2022-08-24T17:18:38;23.70;99.90
25046;DHT22;13044;49.304;12.840;2022-08-24T17:21:07;23.60;99.90
25046;DHT22;13044;49.304;12.840;2022-08-24T17:23:34;23.60;99.90
25046;DHT22;13044;49.304;12.840;2022-08-24T17:26:07;23.50;99.90
25046;DHT22;13044;49.304;12.840;2022-08-24T17:28:46;23.50;99.90
25046;DHT22;13044;49.304;12.840;2022-08-24T17:31:14;23.50;99.90
25046;DHT22;13044;49.304;12.840;2022-08-24T17:33:41;23.50;99.90
25046;DHT22;13044;49.304;12.840;2022-08-24T17:36:09;23.50;99.90
25046;DHT22;13044;49.304;12.840;2022-08-24T17:38:47;23.40;99.90
25046;DHT22;13044;49.304;12.840;2022-08-24T17:41:22;23.40;99.90
25046;DHT22;13044;49.304;12.840;2022-08-24T17:43:52;23.30;99.90
25046;DHT22;13044;49.304;12.840;2022-08-24T17:46:19;23.30;99.90
25046;DHT22;13044;49.304;12.840;2022-08-24T17:48:47;23.20;99.90
25046;DHT22;13044;49.304;12.840;2022-08-24T17:51:14;23.10;99.90
25046;DHT22;13044;49.304;12.840;2022-08-24T17:53:41;23.00;99.90
25046;DHT22;13044;49.304;12.840;2022-08-24T17:56:10;22.90;99.90
25046;DHT22;13044;49.304;12.840;2022-08-24T17:58:39;22.90;99.90
25046;DHT22;13044;49.304;12.840;2022-08-24T18:01:25;22.80;99.90
25046;DHT22;13044;49.304;12.840;2022-08-24T18:03:53;22.70;99.90
25046;DHT22;13044;49.304;12.840;2022-08-24T18:06:22;22.70;99.90
25046;DHT22;13044;49.304;12.840;2022-08-24T18:08:50;22.60;99.90
25046;DHT22;13044;49.304;12.840;2022-08-24T18:11:18;22.60;99.90
25046;DHT22;13044;49.304;12.840;2022-08-24T18:13:51;22.50;99.90
25046;DHT22;13044;49.304;12.840;2022-08-24T18:16:22;22.40;99.90
25046;DHT22;13044;49.304;12.840;2022-08-24T18:18:51;22.40;99.90
25046;DHT22;13044;49.304;12.840;2022-08-24T18:21:19;22.30;99.90
25046;DHT22;13044;49.304;12.840;2022-08-24T18:23:47;22.30;99.90
25046;DHT22;13044;49.304;12.840;2022-08-24T18:26:20;22.20;99.90
25046;DHT22;13044;49.304;12.840;2022-08-24T18:28:56;22.20;99.90
25046;DHT22;13044;49.304;12.840;2022-08-24T18:31:27;22.30;99.90
25046;DHT22;13044;49.304;12.840;2022-08-24T18:33:54;22.20;99.90
25046;DHT22;13044;49.304;12.840;2022-08-24T18:36:21;22.10;99.90
25046;DHT22;13044;49.304;12.840;2022-08-24T18:38:48;22.00;99.90
25046;DHT22;13044;49.304;12.840;2022-08-24T18:41:15;21.90;99.90
25046;DHT22;13044;49.304;12.840;2022-08-24T18:43:42;21.80;99.90
25046;DHT22;13044;49.304;12.840;2022-08-24T18:46:09;21.80;99.90
25046;DHT22;13044;49.304;12.840;2022-08-24T18:48:36;21.80;99.90
25046;DHT22;13044;49.304;12.840;2022-08-24T18:51:03;21.70;99.90
25046;DHT22;13044;49.304;12.840;2022-08-24T18:53:30;21.70;99.90
25046;DHT22;13044;49.304;12.840;2022-08-24T18:56:02;21.60;99.90
25046;DHT22;13044;49.304;12.840;2022-08-24T18:58:37;21.60;99.90
25046;DHT22;13044;49.304;12.840;2022-08-24T19:01:05;21.50;99.90
25046;DHT22;13044;49.304;12.840;2022-08-24T19:03:32;21.50;99.90
25046;DHT22;13044;49.304;12.840;2022-08-24T19:06:00;21.50;99.90
25046;DHT22;13044;49.304;12.840;2022-08-24T19:08:27;21.40;99.90
25046;DHT22;13044;49.304;12.840;2022-08-24T19:10:54;21.40;99.90
25046;DHT22;13044;49.304;12.840;2022-08-24T19:13:21;21.30;99.90
25046;DHT22;13044;49.304;12.840;2022-08-24T19:15:48;21.30;99.90
25046;DHT22;13044;49.304;12.840;2022-08-24T19:18:18;21.20;99.90
25046;DHT22;13044;49.304;12.840;2022-08-24T19:20:49;21.20;99.90
25046;DHT22;13044;49.304;12.840;2022-08-24T19:23:27;21.10;99.90
25046;DHT22;13044;49.304;12.840;2022-08-24T19:25:56;21.00;99.90
25046;DHT22;13044;49.304;12.840;2022-08-24T19:28:24;20.90;99.90
25046;DHT22;13044;49.304;12.840;2022-08-24T19:31:00;20.90;99.90